Accueil
METAR-TAF:

METAR-TAF

Aéroports :

Ancône, Italie

latitude: 43-37N, longitude: 013-22E, altitude: 12 m

Observation

Le bulletin a été fait il y a 1 heure et 1 minutes, à 00:50 UTC
Vent 3 kt de sud
Température 13°C
Humidité 94%
Pression 1027 hPa
Visibilité 10 km ou plus

METAR: LIPY 060050Z AUTO 18003KT 9999 NCD 13/12 Q1027

Heure: 03:51 (01:51 UTC)

Prévision

Le bulletin a été fait il y a 2 heures et 51 minutes, à 23:00 UTC
Prévision valable du 06 à 00 UTC au 06 à 24 UTC
Vent 5 kt de direction variable
Visibilité 10 km ou plus
pas de nuages en-dessous de 1500 mètres et pas de cumulonimbus.
Evoluant progressivement
du 06 à 10 UTC au 06 à 12 UTC
Vent 10 kt de nord-est
Evoluant progressivement
du 06 à 15 UTC au 06 à 17 UTC
Vent 5 kt de direction variable

TAF: LIPY 052300Z 0600/0624 VRB05KT CAVOK BECMG 0610/0612 04010KT BECMG 0615/0617 VRB05KT

Observations et prévisions météorologiques de plus de 4000 aéroports (messages METAR et TAF).

Les stations disponibles sont représentées par des disques jaunes et rouges sur la carte.

Passer la souris dessus pour voir le nom de la station.

Cliquer dessus pour voir les observations et prévisions météorologiques.

Pour changer de carte: cliquez sur les boutons verts avec une croix noire pour zoomer, sur le bouton vert avec un tiret pour effectuer un zoom arrière, ou sur les flèches vertes pour les cartes adjacentes.


METAR-TAF: